sensor_id;sensor_type;location;lat;lon;timestamp;pressure;altitude;pressure_sealevel;temperature;humidity
58295;BME280;45705;55.592;37.460;2023-05-29T00:02:01;99394.25;;;8.79;100.00
58295;BME280;45705;55.592;37.460;2023-05-29T00:04:27;99391.91;;;8.73;100.00
58295;BME280;45705;55.592;37.460;2023-05-29T00:06:53;99393.31;;;8.89;100.00
58295;BME280;45705;55.592;37.460;2023-05-29T00:09:18;99398.28;;;8.82;100.00
58295;BME280;45705;55.592;37.460;2023-05-29T00:11:44;99398.66;;;8.75;100.00
58295;BME280;45705;55.592;37.460;2023-05-29T00:14:12;99403.16;;;8.85;100.00
58295;BME280;45705;55.592;37.460;2023-05-29T00:16:39;99406.50;;;8.77;100.00
58295;BME280;45705;55.592;37.460;2023-05-29T00:19:05;99406.56;;;8.72;100.00
58295;BME280;45705;55.592;37.460;2023-05-29T00:21:30;99404.06;;;8.75;100.00
58295;BME280;45705;55.592;37.460;2023-05-29T00:23:56;99407.59;;;8.76;100.00
58295;BME280;45705;55.592;37.460;2023-05-29T00:26:21;99412.78;;;8.72;100.00
58295;BME280;45705;55.592;37.460;2023-05-29T00:28:53;99415.97;;;8.55;100.00
58295;BME280;45705;55.592;37.460;2023-05-29T00:31:18;99408.94;;;8.54;100.00
58295;BME280;45705;55.592;37.460;2023-05-29T00:33:44;99414.94;;;8.51;100.00
58295;BME280;45705;55.592;37.460;2023-05-29T00:36:09;99412.84;;;8.43;100.00
58295;BME280;45705;55.592;37.460;2023-05-29T00:38:35;99411.78;;;8.39;100.00
58295;BME280;45705;55.592;37.460;2023-05-29T00:41:01;99404.50;;;8.34;100.00
58295;BME280;45705;55.592;37.460;2023-05-29T00:43:27;99408.28;;;8.09;100.00
58295;BME280;45705;55.592;37.460;2023-05-29T00:45:54;99410.22;;;8.03;100.00
58295;BME280;45705;55.592;37.460;2023-05-29T00:48:20;99403.25;;;8.26;100.00
58295;BME280;45705;55.592;37.460;2023-05-29T00:50:46;99403.50;;;8.54;100.00
58295;BME280;45705;55.592;37.460;2023-05-29T00:53:12;99408.97;;;8.49;100.00
58295;BME280;45705;55.592;37.460;2023-05-29T00:55:39;99414.34;;;8.54;100.00
58295;BME280;45705;55.592;37.460;2023-05-29T00:58:04;99414.22;;;8.64;100.00
58295;BME280;45705;55.592;37.460;2023-05-29T01:00:30;99408.69;;;8.75;100.00
58295;BME280;45705;55.592;37.460;2023-05-29T01:02:58;99414.63;;;8.53;100.00
58295;BME280;45705;55.592;37.460;2023-05-29T01:05:24;99414.53;;;8.63;100.00
58295;BME280;45705;55.592;37.460;2023-05-29T01:07:49;99420.81;;;8.58;100.00
58295;BME280;45705;55.592;37.460;2023-05-29T01:10:15;99413.78;;;8.57;100.00
58295;BME280;45705;55.592;37.460;2023-05-29T01:12:48;99418.50;;;8.71;100.00
58295;BME280;45705;55.592;37.460;2023-05-29T01:15:35;99422.94;;;8.61;100.00
58295;BME280;45705;55.592;37.460;2023-05-29T01:25:58;99425.75;;;8.75;100.00
58295;BME280;45705;55.592;37.460;2023-05-29T01:28:33;99415.16;;;8.79;100.00
58295;BME280;45705;55.592;37.460;2023-05-29T01:31:02;99420.72;;;8.69;100.00
58295;BME280;45705;55.592;37.460;2023-05-29T01:33:29;99420.81;;;8.82;100.00
58295;BME280;45705;55.592;37.460;2023-05-29T01:35:55;99427.25;;;8.62;100.00
58295;BME280;45705;55.592;37.460;2023-05-29T01:38:21;99423.28;;;8.79;100.00
58295;BME280;45705;55.592;37.460;2023-05-29T01:40:49;99424.94;;;8.99;100.00
58295;BME280;45705;55.592;37.460;2023-05-29T01:43:14;99420.91;;;8.96;100.00
58295;BME280;45705;55.592;37.460;2023-05-29T01:45:41;99423.41;;;9.12;100.00
58295;BME280;45705;55.592;37.460;2023-05-29T01:48:06;99426.13;;;9.12;100.00
58295;BME280;45705;55.592;37.460;2023-05-29T01:50:33;99427.44;;;9.14;100.00
58295;BME280;45705;55.592;37.460;2023-05-29T01:52:59;99428.94;;;9.25;100.00
58295;BME280;45705;55.592;37.460;2023-05-29T01:55:25;99423.13;;;9.32;99.13
58295;BME280;45705;55.592;37.460;2023-05-29T01:57:50;99429.94;;;9.30;98.84
58295;BME280;45705;55.592;37.460;2023-05-29T02:00:17;99429.66;;;9.50;98.19
58295;BME280;45705;55.592;37.460;2023-05-29T02:02:46;99421.06;;;9.62;96.40
58295;BME280;45705;55.592;37.460;2023-05-29T02:05:12;99432.56;;;9.73;95.29
58295;BME280;45705;55.592;37.460;2023-05-29T02:07:37;99427.09;;;9.59;95.64
58295;BME280;45705;55.592;37.460;2023-05-29T02:10:04;99433.19;;;9.70;94.99
58295;BME280;45705;55.592;37.460;2023-05-29T02:12:29;99435.50;;;9.76;94.93
58295;BME280;45705;55.592;37.460;2023-05-29T02:14:55;99437.13;;;9.77;94.84
58295;BME280;45705;55.592;37.460;2023-05-29T02:17:22;99436.16;;;9.87;93.37
58295;BME280;45705;55.592;37.460;2023-05-29T02:19:47;99430.84;;;9.96;93.00
58295;BME280;45705;55.592;37.460;2023-05-29T02:22:13;99430.66;;;10.06;92.10
58295;BME280;45705;55.592;37.460;2023-05-29T02:24:38;99434.56;;;10.00;92.26
58295;BME280;45705;55.592;37.460;2023-05-29T02:27:06;99442.38;;;10.20;90.19
58295;BME280;45705;55.592;37.460;2023-05-29T02:29:33;99436.34;;;10.23;91.33
58295;BME280;45705;55.592;37.460;2023-05-29T02:31:58;99434.59;;;10.33;90.01
58295;BME280;45705;55.592;37.460;2023-05-29T02:34:24;99428.16;;;10.42;90.92
58295;BME280;45705;55.592;37.460;2023-05-29T02:36:50;99427.84;;;10.44;90.77
58295;BME280;45705;55.592;37.460;2023-05-29T02:39:17;99432.59;;;10.52;89.96
58295;BME280;45705;55.592;37.460;2023-05-29T02:41:42;99428.66;;;10.58;92.63
58295;BME280;45705;55.592;37.460;2023-05-29T02:44:08;99431.38;;;10.58;91.63
58295;BME280;45705;55.592;37.460;2023-05-29T02:46:34;99437.84;;;10.62;90.58
58295;BME280;45705;55.592;37.460;2023-05-29T02:48:59;99445.09;;;10.67;92.20
58295;BME280;45705;55.592;37.460;2023-05-29T02:51:25;99436.66;;;10.69;89.37
58295;BME280;45705;55.592;37.460;2023-05-29T02:53:50;99445.91;;;10.81;93.77
58295;BME280;45705;55.592;37.460;2023-05-29T02:56:16;99445.50;;;10.88;94.03
58295;BME280;45705;55.592;37.460;2023-05-29T02:58:42;99452.56;;;10.75;93.03
58295;BME280;45705;55.592;37.460;2023-05-29T03:01:07;99450.13;;;11.01;93.59
58295;BME280;45705;55.592;37.460;2023-05-29T03:03:33;99454.16;;;11.04;92.52
58295;BME280;45705;55.592;37.460;2023-05-29T03:05:59;99460.22;;;11.15;85.88
58295;BME280;45705;55.592;37.460;2023-05-29T03:08:26;99448.59;;;11.23;83.08
58295;BME280;45705;55.592;37.460;2023-05-29T03:10:52;99451.63;;;11.21;81.60
58295;BME280;45705;55.592;37.460;2023-05-29T03:13:18;99455.50;;;11.43;80.75
58295;BME280;45705;55.592;37.460;2023-05-29T03:15:51;99452.03;;;11.51;79.52
58295;BME280;45705;55.592;37.460;2023-05-29T03:18:22;99443.59;;;13.93;67.56
58295;BME280;45705;55.592;37.460;2023-05-29T03:20:48;99446.47;;;16.26;56.10
58295;BME280;45705;55.592;37.460;2023-05-29T03:23:14;99446.47;;;16.96;50.47
58295;BME280;45705;55.592;37.460;2023-05-29T03:25:39;99449.59;;;18.00;46.96
58295;BME280;45705;55.592;37.460;2023-05-29T03:28:06;99452.47;;;18.48;45.34
58295;BME280;45705;55.592;37.460;2023-05-29T03:30:31;99441.34;;;18.76;44.47
58295;BME280;45705;55.592;37.460;2023-05-29T03:32:57;99448.59;;;19.87;41.42
58295;BME280;45705;55.592;37.460;2023-05-29T03:35:40;99447.47;;;20.31;40.28
58295;BME280;45705;55.592;37.460;2023-05-29T03:38:07;99451.34;;;20.06;41.07
58295;BME280;45705;55.592;37.460;2023-05-29T03:40:32;99448.09;;;20.43;40.20
58295;BME280;45705;55.592;37.460;2023-05-29T03:42:58;99454.19;;;20.76;39.01
58295;BME280;45705;55.592;37.460;2023-05-29T03:45:23;99451.53;;;21.36;37.83
58295;BME280;45705;55.592;37.460;2023-05-29T03:47:49;99458.50;;;21.23;38.17
58295;BME280;45705;55.592;37.460;2023-05-29T03:50:14;99456.63;;;21.31;38.14
58295;BME280;45705;55.592;37.460;2023-05-29T03:52:42;99458.69;;;21.11;38.16
58295;BME280;45705;55.592;37.460;2023-05-29T03:55:11;99450.66;;;21.55;37.74
58295;BME280;45705;55.592;37.460;2023-05-29T03:57:40;99466.78;;;21.80;36.48
58295;BME280;45705;55.592;37.460;2023-05-29T04:00:10;99461.28;;;22.51;35.49
58295;BME280;45705;55.592;37.460;2023-05-29T04:02:38;99460.81;;;22.08;35.80
58295;BME280;45705;55.592;37.460;2023-05-29T04:05:05;99459.53;;;22.36;34.56
58295;BME280;45705;55.592;37.460;2023-05-29T04:07:32;99463.16;;;22.85;34.37
58295;BME280;45705;55.592;37.460;2023-05-29T04:09:57;99462.28;;;23.98;31.98
58295;BME280;45705;55.592;37.460;2023-05-29T04:12:23;99461.25;;;23.51;32.40
58295;BME280;45705;55.592;37.460;2023-05-29T04:14:48;99456.72;;;23.91;31.36
58295;BME280;45705;55.592;37.460;2023-05-29T04:17:14;99468.41;;;24.58;30.11
58295;BME280;45705;55.592;37.460;2023-05-29T04:19:42;99464.50;;;23.68;30.31
58295;BME280;45705;55.592;37.460;2023-05-29T04:22:07;99462.72;;;23.31;31.04
58295;BME280;45705;55.592;37.460;2023-05-29T04:24:33;99466.06;;;23.62;30.55
58295;BME280;45705;55.592;37.460;2023-05-29T04:26:59;99463.81;;;23.82;30.14
58295;BME280;45705;55.592;37.460;2023-05-29T04:29:28;99464.44;;;24.81;28.78
58295;BME280;45705;55.592;37.460;2023-05-29T04:31:54;99468.41;;;25.30;27.98
58295;BME280;45705;55.592;37.460;2023-05-29T04:34:21;99468.34;;;25.55;27.29
58295;BME280;45705;55.592;37.460;2023-05-29T04:36:47;99466.88;;;26.24;26.28
58295;BME280;45705;55.592;37.460;2023-05-29T04:39:13;99478.75;;;25.04;27.88
58295;BME280;45705;55.592;37.460;2023-05-29T04:41:39;99479.16;;;24.74;28.73
58295;BME280;45705;55.592;37.460;2023-05-29T04:44:08;99485.53;;;25.25;28.19
58295;BME280;45705;55.592;37.460;2023-05-29T04:46:45;99484.13;;;27.24;25.70
58295;BME280;45705;55.592;37.460;2023-05-29T04:49:13;99473.97;;;26.99;25.75
58295;BME280;45705;55.592;37.460;2023-05-29T04:51:39;99477.75;;;26.71;26.14
58295;BME280;45705;55.592;37.460;2023-05-29T04:54:07;99478.94;;;27.22;25.36
58295;BME280;45705;55.592;37.460;2023-05-29T04:56:35;99476.53;;;27.28;25.16
58295;BME280;45705;55.592;37.460;2023-05-29T04:59:02;99487.19;;;26.91;25.37
58295;BME280;45705;55.592;37.460;2023-05-29T05:01:28;99485.59;;;26.87;24.72
58295;BME280;45705;55.592;37.460;2023-05-29T05:03:54;99485.41;;;28.53;23.06
58295;BME280;45705;55.592;37.460;2023-05-29T05:06:23;99479.97;;;27.77;23.33
58295;BME280;45705;55.592;37.460;2023-05-29T05:08:50;99482.13;;;28.58;23.11
58295;BME280;45705;55.592;37.460;2023-05-29T05:11:17;99481.31;;;28.00;23.12
58295;BME280;45705;55.592;37.460;2023-05-29T05:13:43;99476.69;;;28.44;22.84
58295;BME280;45705;55.592;37.460;2023-05-29T05:16:09;99477.00;;;28.22;22.61
58295;BME280;45705;55.592;37.460;2023-05-29T05:18:37;99481.44;;;28.78;21.90
58295;BME280;45705;55.592;37.460;2023-05-29T05:21:05;99486.16;;;27.96;22.14
58295;BME280;45705;55.592;37.460;2023-05-29T05:23:33;99479.63;;;28.37;21.66
58295;BME280;45705;55.592;37.460;2023-05-29T05:25:58;99479.31;;;29.09;21.23
58295;BME280;45705;55.592;37.460;2023-05-29T05:28:24;99475.97;;;29.81;19.79
58295;BME280;45705;55.592;37.460;2023-05-29T05:30:54;99491.28;;;29.33;20.84
58295;BME280;45705;55.592;37.460;2023-05-29T05:33:19;99486.88;;;29.36;20.23
58295;BME280;45705;55.592;37.460;2023-05-29T05:35:46;99484.06;;;29.36;19.92
58295;BME280;45705;55.592;37.460;2023-05-29T05:38:11;99491.88;;;29.44;19.88
58295;BME280;45705;55.592;37.460;2023-05-29T05:40:37;99493.59;;;29.38;19.28
58295;BME280;45705;55.592;37.460;2023-05-29T05:43:12;99486.75;;;29.19;19.59
58295;BME280;45705;55.592;37.460;2023-05-29T05:45:58;99493.25;;;30.00;18.35
58295;BME280;45705;55.592;37.460;2023-05-29T05:48:24;99483.72;;;30.34;18.04
58295;BME280;45705;55.592;37.460;2023-05-29T05:50:49;99494.88;;;29.77;18.47
58295;BME280;45705;55.592;37.460;2023-05-29T05:53:15;99488.88;;;29.79;18.93
58295;BME280;45705;55.592;37.460;2023-05-29T05:55:42;99493.06;;;29.67;18.32
58295;BME280;45705;55.592;37.460;2023-05-29T05:58:08;99497.75;;;30.14;18.32
58295;BME280;45705;55.592;37.460;2023-05-29T06:00:34;99488.47;;;30.53;17.88
58295;BME280;45705;55.592;37.460;2023-05-29T06:02:59;99493.06;;;30.27;17.66
58295;BME280;45705;55.592;37.460;2023-05-29T06:05:45;99500.06;;;29.99;17.04
58295;BME280;45705;55.592;37.460;2023-05-29T06:08:10;99503.69;;;29.56;17.61
58295;BME280;45705;55.592;37.460;2023-05-29T06:10:37;99495.22;;;30.92;16.79
58295;BME280;45705;55.592;37.460;2023-05-29T06:13:03;99496.38;;;30.42;17.12
58295;BME280;45705;55.592;37.460;2023-05-29T06:15:39;99505.41;;;30.30;16.69
58295;BME280;45705;55.592;37.460;2023-05-29T06:18:04;99497.03;;;30.83;16.23
58295;BME280;45705;55.592;37.460;2023-05-29T06:20:30;99494.81;;;30.01;15.96
58295;BME280;45705;55.592;37.460;2023-05-29T06:22:56;99493.72;;;30.51;15.99
58295;BME280;45705;55.592;37.460;2023-05-29T06:25:23;99500.19;;;30.85;15.53
58295;BME280;45705;55.592;37.460;2023-05-29T06:27:55;99496.91;;;31.19;15.54
58295;BME280;45705;55.592;37.460;2023-05-29T06:30:21;99518.41;;;29.60;16.69
58295;BME280;45705;55.592;37.460;2023-05-29T06:32:46;99513.00;;;29.93;16.14
58295;BME280;45705;55.592;37.460;2023-05-29T06:35:12;99509.97;;;30.23;15.63
58295;BME280;45705;55.592;37.460;2023-05-29T06:37:38;99517.16;;;30.45;15.53
58295;BME280;45705;55.592;37.460;2023-05-29T06:40:03;99516.91;;;30.72;15.50
58295;BME280;45705;55.592;37.460;2023-05-29T06:42:30;99523.06;;;29.90;15.57
58295;BME280;45705;55.592;37.460;2023-05-29T06:44:57;99524.16;;;29.76;15.56
58295;BME280;45705;55.592;37.460;2023-05-29T06:47:23;99516.03;;;31.40;15.22
58295;BME280;45705;55.592;37.460;2023-05-29T06:49:49;99516.09;;;30.91;15.89
58295;BME280;45705;55.592;37.460;2023-05-29T06:52:15;99520.97;;;30.14;17.12
58295;BME280;45705;55.592;37.460;2023-05-29T06:54:59;99523.31;;;30.72;16.19
58295;BME280;45705;55.592;37.460;2023-05-29T06:57:25;99525.47;;;29.92;17.07
58295;BME280;45705;55.592;37.460;2023-05-29T06:59:50;99516.34;;;29.20;17.54
58295;BME280;45705;55.592;37.460;2023-05-29T07:02:16;99516.94;;;30.15;17.34
58295;BME280;45705;55.592;37.460;2023-05-29T07:04:45;99510.19;;;29.93;17.06
58295;BME280;45705;55.592;37.460;2023-05-29T07:07:11;99515.25;;;30.01;17.86
58295;BME280;45705;55.592;37.460;2023-05-29T07:09:36;99519.97;;;28.66;18.31
58295;BME280;45705;55.592;37.460;2023-05-29T07:12:04;99518.69;;;29.45;17.25
58295;BME280;45705;55.592;37.460;2023-05-29T07:14:30;99524.81;;;29.17;17.30
58295;BME280;45705;55.592;37.460;2023-05-29T07:16:56;99518.91;;;29.08;17.76
58295;BME280;45705;55.592;37.460;2023-05-29T07:19:22;99517.41;;;29.50;17.38
58295;BME280;45705;55.592;37.460;2023-05-29T07:21:49;99525.78;;;29.30;17.50
58295;BME280;45705;55.592;37.460;2023-05-29T07:24:17;99525.38;;;29.52;17.45
58295;BME280;45705;55.592;37.460;2023-05-29T07:26:42;99522.50;;;30.19;16.49
58295;BME280;45705;55.592;37.460;2023-05-29T07:29:09;99529.44;;;27.80;18.04
58295;BME280;45705;55.592;37.460;2023-05-29T07:31:34;99523.69;;;27.95;18.09
58295;BME280;45705;55.592;37.460;2023-05-29T07:34:00;99532.25;;;26.16;19.45
58295;BME280;45705;55.592;37.460;2023-05-29T07:36:30;99526.41;;;26.66;19.16
58295;BME280;45705;55.592;37.460;2023-05-29T07:39:00;99533.97;;;25.60;20.76
58295;BME280;45705;55.592;37.460;2023-05-29T07:41:26;99535.56;;;24.85;20.96
58295;BME280;45705;55.592;37.460;2023-05-29T07:43:53;99522.03;;;24.55;21.18
58295;BME280;45705;55.592;37.460;2023-05-29T07:46:20;99525.00;;;24.07;21.81
58295;BME280;45705;55.592;37.460;2023-05-29T07:48:49;99522.75;;;24.48;21.98
58295;BME280;45705;55.592;37.460;2023-05-29T07:51:15;99526.78;;;23.11;23.74
58295;BME280;45705;55.592;37.460;2023-05-29T07:53:44;99540.91;;;22.99;24.59
58295;BME280;45705;55.592;37.460;2023-05-29T07:56:11;99537.16;;;23.22;24.43
58295;BME280;45705;55.592;37.460;2023-05-29T07:58:38;99525.25;;;22.35;24.62
58295;BME280;45705;55.592;37.460;2023-05-29T08:01:05;99535.13;;;22.36;23.94
58295;BME280;45705;55.592;37.460;2023-05-29T08:03:31;99532.25;;;21.95;24.99
58295;BME280;45705;55.592;37.460;2023-05-29T08:06:03;99534.06;;;22.48;24.43
58295;BME280;45705;55.592;37.460;2023-05-29T08:08:29;99545.69;;;21.67;25.29
58295;BME280;45705;55.592;37.460;2023-05-29T08:10:57;99535.84;;;21.99;24.49
58295;BME280;45705;55.592;37.460;2023-05-29T08:13:22;99534.63;;;21.67;24.88
58295;BME280;45705;55.592;37.460;2023-05-29T08:15:48;99532.59;;;21.37;25.15
58295;BME280;45705;55.592;37.460;2023-05-29T08:18:13;99527.38;;;21.58;25.45
58295;BME280;45705;55.592;37.460;2023-05-29T08:20:39;99531.97;;;21.47;25.62
58295;BME280;45705;55.592;37.460;2023-05-29T08:23:05;99546.06;;;21.15;26.38
58295;BME280;45705;55.592;37.460;2023-05-29T08:25:30;99544.28;;;20.80;27.29
58295;BME280;45705;55.592;37.460;2023-05-29T08:27:57;99538.69;;;21.00;26.83
58295;BME280;45705;55.592;37.460;2023-05-29T08:30:22;99533.47;;;20.95;27.05
58295;BME280;45705;55.592;37.460;2023-05-29T08:32:48;99538.00;;;20.83;26.91
58295;BME280;45705;55.592;37.460;2023-05-29T08:35:15;99526.06;;;21.26;26.41
58295;BME280;45705;55.592;37.460;2023-05-29T08:37:41;99522.72;;;20.90;27.12
58295;BME280;45705;55.592;37.460;2023-05-29T08:40:07;99523.41;;;20.83;27.02
58295;BME280;45705;55.592;37.460;2023-05-29T08:42:36;99527.28;;;20.39;26.83
58295;BME280;45705;55.592;37.460;2023-05-29T08:45:02;99513.19;;;20.44;26.86
58295;BME280;45705;55.592;37.460;2023-05-29T08:47:32;99521.66;;;20.32;27.20
58295;BME280;45705;55.592;37.460;2023-05-29T08:49:58;99520.03;;;20.51;27.31
58295;BME280;45705;55.592;37.460;2023-05-29T08:52:25;99518.22;;;20.81;27.53
58295;BME280;45705;55.592;37.460;2023-05-29T08:54:54;99513.47;;;20.78;27.41
58295;BME280;45705;55.592;37.460;2023-05-29T08:57:21;99512.06;;;20.45;28.12
58295;BME280;45705;55.592;37.460;2023-05-29T08:59:47;99511.00;;;20.54;28.28
58295;BME280;45705;55.592;37.460;2023-05-29T09:02:16;99504.91;;;20.87;28.37
58295;BME280;45705;55.592;37.460;2023-05-29T09:04:42;99498.81;;;20.78;28.69
58295;BME280;45705;55.592;37.460;2023-05-29T09:07:11;99507.81;;;20.71;28.77
58295;BME280;45705;55.592;37.460;2023-05-29T09:09:55;99509.41;;;20.53;27.93
58295;BME280;45705;55.592;37.460;2023-05-29T09:12:20;99494.28;;;20.66;27.82
58295;BME280;45705;55.592;37.460;2023-05-29T09:14:47;99498.34;;;20.72;28.18
58295;BME280;45705;55.592;37.460;2023-05-29T09:17:12;99493.47;;;20.23;28.38
58295;BME280;45705;55.592;37.460;2023-05-29T09:19:38;99501.00;;;20.45;27.52
58295;BME280;45705;55.592;37.460;2023-05-29T09:22:09;99501.97;;;20.57;26.95
58295;BME280;45705;55.592;37.460;2023-05-29T09:24:36;99498.53;;;20.40;27.90
58295;BME280;45705;55.592;37.460;2023-05-29T09:27:02;99507.66;;;20.64;28.45
58295;BME280;45705;55.592;37.460;2023-05-29T09:29:32;99494.22;;;20.43;27.97
58295;BME280;45705;55.592;37.460;2023-05-29T09:31:58;99494.63;;;20.41;27.34
58295;BME280;45705;55.592;37.460;2023-05-29T09:34:24;99491.00;;;20.18;27.40
58295;BME280;45705;55.592;37.460;2023-05-29T09:36:50;99486.22;;;20.57;27.54
58295;BME280;45705;55.592;37.460;2023-05-29T09:39:16;99495.13;;;20.70;27.15
58295;BME280;45705;55.592;37.460;2023-05-29T09:41:46;99493.22;;;20.51;27.10
58295;BME280;45705;55.592;37.460;2023-05-29T09:44:16;99490.59;;;20.39;27.32
58295;BME280;45705;55.592;37.460;2023-05-29T09:46:41;99487.53;;;20.01;28.04
58295;BME280;45705;55.592;37.460;2023-05-29T09:49:14;99484.03;;;20.04;28.07
58295;BME280;45705;55.592;37.460;2023-05-29T09:51:41;99468.63;;;20.23;28.73
58295;BME280;45705;55.592;37.460;2023-05-29T09:54:16;99480.09;;;20.05;28.39
58295;BME280;45705;55.592;37.460;2023-05-29T09:56:42;99467.78;;;20.42;27.91
58295;BME280;45705;55.592;37.460;2023-05-29T09:59:10;99471.69;;;20.83;27.64
58295;BME280;45705;55.592;37.460;2023-05-29T10:01:35;99475.50;;;20.75;27.86
58295;BME280;45705;55.592;37.460;2023-05-29T10:04:01;99479.41;;;20.74;27.00
58295;BME280;45705;55.592;37.460;2023-05-29T10:06:27;99473.06;;;20.51;27.27
58295;BME280;45705;55.592;37.460;2023-05-29T10:08:54;99466.66;;;20.66;27.33
58295;BME280;45705;55.592;37.460;2023-05-29T10:11:21;99463.13;;;20.46;27.23
58295;BME280;45705;55.592;37.460;2023-05-29T10:13:51;99462.50;;;20.33;27.88
58295;BME280;45705;55.592;37.460;2023-05-29T10:16:20;99457.09;;;20.40;27.53
58295;BME280;45705;55.592;37.460;2023-05-29T10:18:50;99461.34;;;20.34;28.15
58295;BME280;45705;55.592;37.460;2023-05-29T10:21:19;99458.69;;;20.61;27.81
58295;BME280;45705;55.592;37.460;2023-05-29T10:23:48;99466.44;;;20.32;27.78
58295;BME280;45705;55.592;37.460;2023-05-29T10:28:41;99455.97;;;20.02;28.31
58295;BME280;45705;55.592;37.460;2023-05-29T10:31:10;99442.41;;;20.13;28.41
58295;BME280;45705;55.592;37.460;2023-05-29T10:33:47;99446.19;;;20.48;28.18
58295;BME280;45705;55.592;37.460;2023-05-29T10:36:21;99443.81;;;20.69;27.76
58295;BME280;45705;55.592;37.460;2023-05-29T10:38:49;99451.56;;;20.60;27.88
58295;BME280;45705;55.592;37.460;2023-05-29T10:46:21;99445.81;;;20.49;27.55
58295;BME280;45705;55.592;37.460;2023-05-29T10:48:50;99440.97;;;20.42;27.79
58295;BME280;45705;55.592;37.460;2023-05-29T10:51:28;99446.88;;;20.64;27.47
58295;BME280;45705;55.592;37.460;2023-05-29T10:53:54;99439.06;;;20.93;27.08
58295;BME280;45705;55.592;37.460;2023-05-29T10:56:21;99442.31;;;20.98;27.43
58295;BME280;45705;55.592;37.460;2023-05-29T10:58:54;99439.44;;;20.91;26.50
58295;BME280;45705;55.592;37.460;2023-05-29T11:01:21;99435.75;;;20.83;26.75
58295;BME280;45705;55.592;37.460;2023-05-29T11:03:46;99433.63;;;20.73;26.18
58295;BME280;45705;55.592;37.460;2023-05-29T11:06:19;99426.22;;;20.35;27.12
58295;BME280;45705;55.592;37.460;2023-05-29T11:11:11;99425.75;;;20.52;26.49
58295;BME280;45705;55.592;37.460;2023-05-29T11:13:37;99432.06;;;20.76;26.33
58295;BME280;45705;55.592;37.460;2023-05-29T11:18:43;99435.19;;;20.74;25.91
58295;BME280;45705;55.592;37.460;2023-05-29T11:21:15;99409.06;;;20.68;24.64
58295;BME280;45705;55.592;37.460;2023-05-29T11:23:46;99429.34;;;20.56;25.61
58295;BME280;45705;55.592;37.460;2023-05-29T11:26:12;99429.16;;;20.65;26.24
58295;BME280;45705;55.592;37.460;2023-05-29T11:28:39;99423.09;;;20.36;26.28
58295;BME280;45705;55.592;37.460;2023-05-29T11:31:07;99418.50;;;20.21;26.85
58295;BME280;45705;55.592;37.460;2023-05-29T11:33:33;99417.81;;;20.27;26.91
58295;BME280;45705;55.592;37.460;2023-05-29T11:36:01;99410.53;;;20.62;26.96
58295;BME280;45705;55.592;37.460;2023-05-29T11:38:28;99413.00;;;20.67;26.87
58295;BME280;45705;55.592;37.460;2023-05-29T11:40:54;99414.50;;;20.61;26.97
58295;BME280;45705;55.592;37.460;2023-05-29T11:43:20;99402.81;;;20.71;26.91
58295;BME280;45705;55.592;37.460;2023-05-29T11:45:46;99405.06;;;20.65;27.49
58295;BME280;45705;55.592;37.460;2023-05-29T11:48:12;99397.59;;;20.93;27.15
58295;BME280;45705;55.592;37.460;2023-05-29T11:50:37;99394.41;;;20.91;27.46
58295;BME280;45705;55.592;37.460;2023-05-29T11:53:05;99395.63;;;20.93;26.75
58295;BME280;45705;55.592;37.460;2023-05-29T11:55:31;99380.94;;;20.62;26.94
58295;BME280;45705;55.592;37.460;2023-05-29T11:57:58;99387.06;;;20.75;27.80
58295;BME280;45705;55.592;37.460;2023-05-29T12:00:24;99380.63;;;20.68;27.59
58295;BME280;45705;55.592;37.460;2023-05-29T12:02:50;99379.72;;;20.60;27.05
58295;BME280;45705;55.592;37.460;2023-05-29T12:05:16;99381.50;;;20.72;26.94
58295;BME280;45705;55.592;37.460;2023-05-29T12:07:50;99381.53;;;20.52;27.63
58295;BME280;45705;55.592;37.460;2023-05-29T12:10:17;99395.28;;;20.49;27.41
58295;BME280;45705;55.592;37.460;2023-05-29T12:12:46;99370.97;;;20.58;28.13
58295;BME280;45705;55.592;37.460;2023-05-29T12:15:12;99373.56;;;20.70;27.88
58295;BME280;45705;55.592;37.460;2023-05-29T12:17:38;99376.75;;;20.72;27.72
58295;BME280;45705;55.592;37.460;2023-05-29T12:20:05;99375.72;;;20.80;28.49
58295;BME280;45705;55.592;37.460;2023-05-29T12:22:35;99366.78;;;20.91;27.72
58295;BME280;45705;55.592;37.460;2023-05-29T12:25:06;99378.34;;;20.73;27.74
58295;BME280;45705;55.592;37.460;2023-05-29T12:27:32;99377.84;;;20.91;28.09
58295;BME280;45705;55.592;37.460;2023-05-29T12:30:03;99375.50;;;20.93;27.75
58295;BME280;45705;55.592;37.460;2023-05-29T12:32:38;99364.75;;;20.88;28.18
58295;BME280;45705;55.592;37.460;2023-05-29T12:40:30;99361.66;;;20.43;28.30
58295;BME280;45705;55.592;37.460;2023-05-29T12:45:24;99361.19;;;20.87;28.04
58295;BME280;45705;55.592;37.460;2023-05-29T12:47:52;99366.13;;;21.01;28.17
58295;BME280;45705;55.592;37.460;2023-05-29T12:50:22;99366.13;;;21.01;27.54
58295;BME280;45705;55.592;37.460;2023-05-29T12:55:20;99353.28;;;20.85;27.34
58295;BME280;45705;55.592;37.460;2023-05-29T12:57:46;99361.13;;;20.83;27.16
58295;BME280;45705;55.592;37.460;2023-05-29T13:00:12;99352.41;;;20.81;27.11
58295;BME280;45705;55.592;37.460;2023-05-29T13:02:37;99359.31;;;20.68;27.47
58295;BME280;45705;55.592;37.460;2023-05-29T13:05:03;99364.13;;;20.71;27.58
58295;BME280;45705;55.592;37.460;2023-05-29T13:07:29;99354.56;;;20.65;27.54
58295;BME280;45705;55.592;37.460;2023-05-29T13:09:56;99357.47;;;20.76;27.29
58295;BME280;45705;55.592;37.460;2023-05-29T13:12:21;99355.00;;;20.94;27.74
58295;BME280;45705;55.592;37.460;2023-05-29T13:14:46;99359.06;;;20.77;27.76
58295;BME280;45705;55.592;37.460;2023-05-29T13:17:12;99352.41;;;20.81;27.83
58295;BME280;45705;55.592;37.460;2023-05-29T13:19:38;99354.28;;;20.51;27.76
58295;BME280;45705;55.592;37.460;2023-05-29T13:22:03;99350.38;;;20.52;28.15